Time;durP1;ratioP1;P1;durP2;ratioP2;P2;SDS_P1;SDS_P2;PMS_P1;PMS_P2;Temp;Humidity;BMP_temperature;BMP_pressure;BME280_temperature;BME280_humidity;BME280_pressure;Samples;Min_cycle;Max_cycle;Signal;HPM_P1;HPM_P2
2023/06/01 00:00:44;;;;;;;21.95;9.00;;;;;;;14.53;100.00;102129.09;5052085;28;20079;-74
2023/06/01 00:03:09;;;;;;;21.27;8.40;;;;;;;14.39;100.00;102129.88;5052147;28;20036;-68
2023/06/01 00:05:34;;;;;;;21.33;8.80;;;;;;;14.32;100.00;102132.47;5051713;28;20037;-74
2023/06/01 00:08:00;;;;;;;21.33;8.77;;;;;;;14.24;100.00;102129.72;5051389;28;20112;-73
2023/06/01 00:10:25;;;;;;;22.15;9.05;;;;;;;14.23;100.00;102134.16;5051637;28;20051;-72
2023/06/01 00:12:50;;;;;;;22.80;9.20;;;;;;;14.08;100.00;102134.91;5052024;28;20110;-70
2023/06/01 00:15:16;;;;;;;22.23;9.80;;;;;;;14.12;100.00;102136.72;5052030;28;20064;-70
2023/06/01 00:17:41;;;;;;;21.33;9.43;;;;;;;13.90;100.00;102135.56;5050639;28;20033;-70
2023/06/01 00:20:08;;;;;;;22.38;9.60;;;;;;;13.76;100.00;102135.44;5051781;28;20029;-74
2023/06/01 00:22:38;;;;;;;25.65;10.45;;;;;;;13.63;100.00;102124.63;5051768;28;20039;-74
2023/06/01 00:25:05;;;;;;;24.90;10.77;;;;;;;13.64;100.00;102121.09;5051668;28;20033;-72
2023/06/01 00:27:31;;;;;;;22.35;10.27;;;;;;;13.46;100.00;102121.78;5052228;28;20025;-69
2023/06/01 00:29:56;;;;;;;23.52;10.45;;;;;;;13.37;100.00;102117.25;5053973;28;20056;-71
2023/06/01 00:32:21;;;;;;;23.73;10.65;;;;;;;13.33;100.00;102120.69;5051811;28;20031;-74
2023/06/01 00:34:47;;;;;;;23.95;10.60;;;;;;;13.20;100.00;102124.94;5051931;28;20108;-70
2023/06/01 00:37:12;;;;;;;23.45;10.38;;;;;;;13.20;100.00;102133.78;5051572;28;20044;-71
2023/06/01 00:39:37;;;;;;;23.83;10.45;;;;;;;13.10;100.00;102126.56;5051311;28;20075;-74
2023/06/01 00:42:04;;;;;;;23.98;10.98;;;;;;;13.03;100.00;102130.00;5050949;28;20055;-69
2023/06/01 00:44:29;;;;;;;23.15;10.45;;;;;;;13.05;100.00;102121.19;5048269;28;20033;-71
2023/06/01 00:46:54;;;;;;;23.92;11.15;;;;;;;13.09;100.00;102127.44;5051683;28;20017;-73
2023/06/01 00:49:20;;;;;;;24.67;10.63;;;;;;;13.09;100.00;102127.44;5051306;28;20040;-73
2023/06/01 00:51:45;;;;;;;22.95;11.18;;;;;;;12.94;100.00;102124.56;5053426;28;20460;-73
2023/06/01 00:54:12;;;;;;;23.35;11.25;;;;;;;12.81;100.00;102134.97;5056868;28;20021;-74
2023/06/01 00:56:38;;;;;;;23.42;11.38;;;;;;;12.79;100.00;102128.78;5055206;28;20360;-74
2023/06/01 00:59:03;;;;;;;23.20;10.80;;;;;;;12.73;100.00;102118.94;5054066;28;20021;-73
2023/06/01 01:01:29;;;;;;;23.73;11.23;;;;;;;12.92;100.00;102124.53;5055614;28;20039;-71
2023/06/01 01:03:57;;;;;;;24.35;11.48;;;;;;;12.91;100.00;102136.91;5054128;28;20029;-73
2023/06/01 01:06:37;;;;;;;24.95;11.48;;;;;;;12.77;100.00;102142.88;5053814;28;20484;-75
2023/06/01 01:09:30;;;;;;;25.35;12.07;;;;;;;12.70;100.00;102133.94;5054889;28;20032;-74
2023/06/01 01:12:00;;;;;;;;;;;;;;;12.72;100.00;102142.81;5055499;28;20021;-70
2023/06/01 01:14:39;;;;;;;24.67;11.25;;;;;;;12.52;100.00;102146.03;5055145;28;20029;-71
2023/06/01 01:17:15;;;;;;;24.20;11.75;;;;;;;12.41;100.00;102147.59;5055166;28;20507;-73
2023/06/01 01:20:08;;;;;;;24.55;12.00;;;;;;;12.28;100.00;102145.59;5051733;28;20036;-72
2023/06/01 01:23:12;;;;;;;25.98;12.95;;;;;;;12.23;100.00;102147.25;5053425;28;20039;-74
2023/06/01 01:25:52;;;;;;;24.27;12.07;;;;;;;12.11;100.00;102151.47;5054889;28;20452;-71
2023/06/01 01:28:36;;;;;;;24.20;12.18;;;;;;;12.07;100.00;102146.97;5054453;28;20032;-72
2023/06/01 01:31:03;;;;;;;26.40;12.82;;;;;;;12.03;100.00;102140.72;5053788;28;20049;-74
2023/06/01 01:33:31;;;;;;;24.88;12.73;;;;;;;11.87;100.00;102138.63;5053258;28;20024;-72
2023/06/01 01:35:58;;;;;;;25.88;13.63;;;;;;;11.93;100.00;102140.50;5054798;28;20041;-74
2023/06/01 01:38:23;;;;;;;27.20;13.40;;;;;;;11.92;100.00;102144.88;5054276;28;20025;-68
2023/06/01 01:40:52;;;;;;;25.52;13.48;;;;;;;11.85;100.00;102149.19;5054998;28;20033;-74
2023/06/01 01:43:18;;;;;;;25.58;13.40;;;;;;;11.81;100.00;102150.00;5057637;28;20115;-74
2023/06/01 01:45:46;;;;;;;26.15;12.75;;;;;;;11.78;100.00;102152.59;5054624;28;20452;-74
2023/06/01 01:48:35;;;;;;;24.45;12.60;;;;;;;11.78;100.00;102152.59;5054171;28;20033;-73
2023/06/01 01:51:10;;;;;;;26.63;13.50;;;;;;;11.64;100.00;102151.41;5054733;28;20051;-70
2023/06/01 01:53:38;;;;;;;25.45;13.70;;;;;;;11.61;100.00;102152.22;5054657;28;20025;-72
2023/06/01 01:56:05;;;;;;;27.05;13.75;;;;;;;11.56;100.00;102155.63;5053906;28;20094;-71
2023/06/01 01:58:31;;;;;;;26.90;14.18;;;;;;;11.44;100.00;102153.63;5053935;28;20029;-74
2023/06/01 02:00:58;;;;;;;27.10;14.18;;;;;;;11.42;100.00;102161.53;5054714;28;20040;-71
2023/06/01 02:03:23;;;;;;;27.30;14.88;;;;;;;11.43;100.00;102154.47;5051128;28;20020;-73
2023/06/01 02:05:48;;;;;;;27.88;14.00;;;;;;;11.30;100.00;102156.88;5053975;28;20025;-70
2023/06/01 02:08:14;;;;;;;26.27;14.52;;;;;;;11.20;100.00;102144.28;5053650;28;20437;-67
2023/06/01 02:10:40;;;;;;;26.30;14.00;;;;;;;11.18;100.00;102150.41;5054093;28;20061;-64
2023/06/01 02:13:06;;;;;;;29.73;14.85;;;;;;;11.10;100.00;102145.84;5054529;28;20025;-72
2023/06/01 02:15:31;;;;;;;26.27;14.23;;;;;;;11.05;100.00;102149.22;5054532;28;20075;-68
2023/06/01 02:17:58;;;;;;;27.23;14.85;;;;;;;11.03;100.00;102148.31;5053672;28;20033;-69
2023/06/01 02:20:24;;;;;;;27.25;14.57;;;;;;;10.88;100.00;102148.81;5054230;28;20468;-72
2023/06/01 02:22:49;;;;;;;26.67;14.45;;;;;;;10.91;100.00;102147.16;5054113;28;20086;-74
2023/06/01 02:25:15;;;;;;;26.60;13.63;;;;;;;10.95;100.00;102149.03;5054132;28;20083;-64
2023/06/01 02:27:41;;;;;;;25.70;13.40;;;;;;;10.91;100.00;102146.28;5053880;28;20480;-68
2023/06/01 02:30:07;;;;;;;25.73;13.52;;;;;;;10.97;100.00;102144.66;5053073;28;20053;-63
2023/06/01 02:32:34;;;;;;;27.48;13.52;;;;;;;10.92;100.00;102148.03;5053573;28;20045;-65
2023/06/01 02:35:00;;;;;;;26.60;13.60;;;;;;;10.90;100.00;102144.47;5054084;28;20029;-66
2023/06/01 02:37:25;;;;;;;27.67;13.27;;;;;;;10.99;100.00;102149.97;5053485;28;20460;-62
2023/06/01 02:39:51;;;;;;;25.02;13.15;;;;;;;10.93;100.00;102141.91;5053076;28;20036;-67
2023/06/01 02:42:16;;;;;;;26.20;13.32;;;;;;;10.90;100.00;102148.00;5053773;28;20484;-63
2023/06/01 02:44:41;;;;;;;23.98;12.57;;;;;;;10.94;100.00;102139.28;5053187;28;20037;-66
2023/06/01 02:47:07;;;;;;;25.27;12.98;;;;;;;10.96;100.00;102150.78;5053513;28;20024;-64
2023/06/01 02:49:32;;;;;;;24.55;12.40;;;;;;;11.09;100.00;102141.38;5053224;28;20174;-68
2023/06/01 02:51:58;;;;;;;24.30;12.10;;;;;;;11.04;100.00;102143.06;5053091;28;20538;-63
2023/06/01 02:54:23;;;;;;;23.98;12.55;;;;;;;11.16;100.00;102145.97;5052968;28;20033;-62
2023/06/01 02:56:48;;;;;;;24.73;12.43;;;;;;;11.14;100.00;102147.69;5055633;28;20032;-65
2023/06/01 02:59:14;;;;;;;24.38;11.77;;;;;;;11.21;100.00;102145.19;5052945;28;20095;-64
2023/06/01 03:01:40;;;;;;;26.23;12.48;;;;;;;11.26;100.00;102140.91;5053144;28;20025;-62
2023/06/01 03:04:07;;;;;;;23.27;11.15;;;;;;;11.22;100.00;102144.31;5053525;28;20029;-67
2023/06/01 03:06:33;;;;;;;23.85;11.13;;;;;;;11.14;100.00;102145.03;5052779;28;20025;-62
2023/06/01 03:08:58;;;;;;;23.65;11.15;;;;;;;11.07;100.00;102148.41;5052511;28;20029;-72
2023/06/01 03:11:24;;;;;;;24.10;11.18;;;;;;;11.14;100.00;102146.81;5053312;28;20040;-74
2023/06/01 03:13:50;;;;;;;26.20;11.18;;;;;;;11.11;100.00;102150.28;5052026;28;20029;-73
2023/06/01 03:16:16;;;;;;;23.50;11.15;;;;;;;11.13;100.00;102151.19;5052902;28;20025;-72
2023/06/01 03:18:42;;;;;;;22.90;10.13;;;;;;;11.19;100.00;102149.56;5051211;28;20025;-72
2023/06/01 03:21:07;;;;;;;23.23;10.98;;;;;;;11.19;100.00;102153.09;5053952;28;20106;-74
2023/06/01 03:23:32;;;;;;;24.38;10.52;;;;;;;11.11;100.00;102152.00;5052823;28;20468;-74
2023/06/01 03:25:58;;;;;;;22.08;10.18;;;;;;;11.19;100.00;102149.56;5052859;28;20037;-73
2023/06/01 03:28:24;;;;;;;23.25;10.60;;;;;;;11.23;100.00;102154.06;5051084;28;20029;-73
2023/06/01 03:30:51;;;;;;;22.90;10.50;;;;;;;11.16;100.00;102143.31;5052273;28;20053;-74
2023/06/01 03:33:16;;;;;;;23.98;10.40;;;;;;;11.19;100.00;102144.25;5052313;28;20041;-74
2023/06/01 03:35:44;;;;;;;23.70;10.50;;;;;;;11.22;100.00;102147.84;5052447;28;20025;-74
2023/06/01 03:38:09;;;;;;;22.92;10.38;;;;;;;11.18;100.00;102151.28;5049226;28;20025;-74
2023/06/01 03:40:35;;;;;;;22.63;10.40;;;;;;;11.15;100.00;102146.84;5052413;28;20371;-72
2023/06/01 03:43:00;;;;;;;22.20;9.90;;;;;;;11.23;100.00;102151.41;5051932;28;20029;-74
2023/06/01 03:45:26;;;;;;;23.15;10.40;;;;;;;11.13;100.00;102152.97;5051638;28;20049;-69
2023/06/01 03:47:51;;;;;;;22.73;10.30;;;;;;;11.13;100.00;102151.19;5051868;28;20121;-75
2023/06/01 03:50:16;;;;;;;22.73;9.98;;;;;;;11.16;100.00;102150.38;5052075;28;20531;-76
2023/06/01 03:52:42;;;;;;;22.00;10.05;;;;;;;11.19;100.00;102154.84;5052145;28;20116;-69
2023/06/01 03:55:09;;;;;;;22.75;10.20;;;;;;;11.15;100.00;102162.72;5052245;28;20032;-73
2023/06/01 03:57:35;;;;;;;21.77;9.90;;;;;;;11.18;100.00;102161.00;5052162;28;20396;-76
2023/06/01 04:00:17;;;;;;;21.45;9.70;;;;;;;11.16;100.00;102160.97;5051965;28;20021;-62
2023/06/01 04:02:50;;;;;;;22.45;9.70;;;;;;;11.21;100.00;102171.66;5052114;28;20040;-62
2023/06/01 04:05:17;;;;;;;;;;;;;;;11.32;100.00;102160.44;5052619;28;20025;-63
2023/06/01 04:07:46;;;;;;;22.58;9.68;;;;;;;11.18;100.00;102161.00;5051586;28;20027;-65
2023/06/01 04:10:13;;;;;;;23.67;9.50;;;;;;;11.18;100.00;102161.88;5052118;28;20079;-63
2023/06/01 04:12:43;;;;;;;21.27;9.38;;;;;;;11.16;100.00;102163.59;5051782;28;20063;-63
2023/06/01 04:15:12;;;;;;;22.10;9.73;;;;;;;11.22;100.00;102163.75;5051869;28;20100;-63
2023/06/01 04:17:39;;;;;;;22.25;9.50;;;;;;;11.32;100.00;102164.84;5051860;28;20040;-63
2023/06/01 04:20:06;;;;;;;20.98;9.00;;;;;;;11.31;100.00;102161.31;5051063;28;20060;-63
2023/06/01 04:22:32;;;;;;;21.35;9.07;;;;;;;11.29;100.00;102167.44;5051644;28;20078;-63
2023/06/01 04:24:57;;;;;;;22.60;9.60;;;;;;;11.27;100.00;102163.84;5051854;28;20052;-63
2023/06/01 04:27:24;;;;;;;21.38;9.32;;;;;;;11.19;100.00;102163.66;5051802;28;20025;-63
2023/06/01 04:29:50;;;;;;;23.27;9.90;;;;;;;11.09;100.00;102165.19;5050916;28;20049;-63
2023/06/01 04:32:21;;;;;;;22.20;9.50;;;;;;;11.09;100.00;102170.50;5051816;28;20522;-63
2023/06/01 04:34:48;;;;;;;22.25;9.65;;;;;;;11.13;100.00;102174.13;5050374;28;20035;-63
2023/06/01 04:37:15;;;;;;;22.02;9.63;;;;;;;11.15;100.00;102169.75;5050322;28;20044;-62
2023/06/01 04:39:41;;;;;;;21.17;9.20;;;;;;;11.17;100.00;102176.00;5051395;28;20033;-62
2023/06/01 04:42:08;;;;;;;22.55;10.05;;;;;;;11.19;100.00;102174.25;5051619;28;20057;-63
2023/06/01 04:44:34;;;;;;;21.75;10.15;;;;;;;11.18;100.00;102174.22;5051689;28;20070;-64
2023/06/01 04:47:03;;;;;;;25.42;10.50;;;;;;;11.20;100.00;102181.34;5050608;28;20485;-67
2023/06/01 04:49:29;;;;;;;23.08;10.27;;;;;;;11.27;100.00;102167.41;5050833;28;20606;-63
2023/06/01 04:51:54;;;;;;;22.38;9.70;;;;;;;11.27;100.00;102177.06;5051795;28;20119;-63
2023/06/01 04:54:19;;;;;;;22.63;10.15;;;;;;;11.28;100.00;102178.88;5051856;28;20025;-63
2023/06/01 04:56:45;;;;;;;23.77;11.05;;;;;;;11.27;100.00;102178.00;5050996;28;20062;-64
2023/06/01 04:59:10;;;;;;;22.63;10.68;;;;;;;11.30;100.00;102175.41;5051221;28;20033;-65
2023/06/01 05:01:38;;;;;;;23.73;10.95;;;;;;;11.33;100.00;102174.59;5051730;28;20036;-62
2023/06/01 05:04:04;;;;;;;23.92;10.38;;;;;;;11.36;100.00;102174.66;5051143;28;20472;-63
2023/06/01 05:06:29;;;;;;;23.35;11.05;;;;;;;11.44;100.00;102165.09;5050991;28;20075;-63
2023/06/01 05:08:55;;;;;;;24.35;11.25;;;;;;;11.55;100.00;102168.00;5050691;28;20040;-62
2023/06/01 05:11:21;;;;;;;22.92;11.05;;;;;;;11.62;100.00;102163.72;5051302;28;20040;-63
2023/06/01 05:13:46;;;;;;;24.45;11.18;;;;;;;11.75;100.00;102157.81;5050204;28;20032;-63
2023/06/01 05:16:12;;;;;;;24.20;11.13;;;;;;;11.89;100.00;102167.81;5050310;28;20051;-63
2023/06/01 05:18:38;;;;;;;22.77;10.35;;;;;;;12.00;100.00;102167.19;5049360;28;20418;-65
2023/06/01 05:21:03;;;;;;;24.60;10.80;;;;;;;12.20;100.00;102175.53;5050836;28;20143;-65
2023/06/01 05:23:29;;;;;;;23.80;11.55;;;;;;;12.06;100.00;102173.44;5051685;28;20033;-63
2023/06/01 05:26:01;;;;;;;24.08;11.40;;;;;;;12.08;100.00;102172.63;5051474;28;20025;-63
2023/06/01 05:28:27;;;;;;;24.00;11.02;;;;;;;11.97;100.00;102168.84;5050401;28;20487;-65
2023/06/01 05:30:52;;;;;;;22.77;11.55;;;;;;;11.85;100.00;102170.41;5051163;28;20065;-63
2023/06/01 05:33:18;;;;;;;23.65;11.30;;;;;;;11.91;100.00;102176.66;5051666;28;20036;-63
2023/06/01 05:35:43;;;;;;;23.25;11.23;;;;;;;11.88;100.00;102171.31;5050031;28;20044;-65
2023/06/01 05:38:08;;;;;;;23.13;11.43;;;;;;;11.93;100.00;102170.56;5053147;28;20033;-65
2023/06/01 05:40:35;;;;;;;23.27;11.40;;;;;;;11.96;100.00;102169.75;5054439;28;20033;-64
2023/06/01 05:43:01;;;;;;;24.48;11.07;;;;;;;11.95;100.00;102167.94;5050761;28;20036;-65
2023/06/01 05:45:26;;;;;;;24.35;11.38;;;;;;;11.97;100.00;102171.50;5054914;28;20029;-66
2023/06/01 05:47:52;;;;;;;25.17;11.50;;;;;;;11.89;100.00;102160.72;5054288;28;20480;-66
2023/06/01 05:50:17;;;;;;;23.67;10.95;;;;;;;11.84;100.00;102167.72;5054464;28;20037;-64
2023/06/01 05:52:42;;;;;;;24.67;11.75;;;;;;;11.89;100.00;102162.50;5053933;28;20033;-66
2023/06/01 05:55:08;;;;;;;23.92;11.10;;;;;;;12.01;100.00;102165.41;5054023;28;20039;-65
2023/06/01 05:57:33;;;;;;;24.30;11.02;;;;;;;12.13;100.00;102164.75;5051687;28;20033;-66
2023/06/01 05:59:59;;;;;;;24.80;11.32;;;;;;;12.40;100.00;102171.44;5054184;28;20021;-66
2023/06/01 06:02:24;;;;;;;23.73;11.20;;;;;;;12.73;100.00;102173.78;5053965;28;20036;-67
2023/06/01 06:04:49;;;;;;;24.05;10.40;;;;;;;13.06;100.00;102169.84;5053946;28;20032;-64
2023/06/01 06:07:15;;;;;;;23.02;10.70;;;;;;;13.22;100.00;102165.66;5054100;28;20035;-65
2023/06/01 06:09:40;;;;;;;22.45;10.07;;;;;;;13.32;100.00;102164.94;5052720;28;20037;-66
2023/06/01 06:12:06;;;;;;;23.20;10.40;;;;;;;13.42;100.00;102166.00;5054299;28;20033;-66
2023/06/01 06:14:32;;;;;;;22.88;10.18;;;;;;;13.51;100.00;102174.06;5053898;28;20094;-65
2023/06/01 06:16:57;;;;;;;24.70;9.88;;;;;;;13.52;100.00;102173.22;5053718;28;20029;-66
2023/06/01 06:19:23;;;;;;;22.40;10.45;;;;;;;13.40;100.00;102171.28;5054329;28;20464;-65
2023/06/01 06:21:49;;;;;;;22.48;10.80;;;;;;;13.25;100.00;102165.72;5054683;28;20036;-65
2023/06/01 06:24:14;;;;;;;23.38;10.75;;;;;;;13.19;100.00;102177.16;5053935;28;20447;-65
2023/06/01 06:26:40;;;;;;;24.35;10.98;;;;;;;13.20;100.00;102170.97;5053933;28;20032;-66
2023/06/01 06:29:05;;;;;;;26.23;11.10;;;;;;;13.15;100.00;102182.38;5052888;28;20021;-65
2023/06/01 06:31:31;;;;;;;23.05;10.80;;;;;;;12.86;100.00;102188.16;5053793;28;20089;-65
2023/06/01 06:33:56;;;;;;;23.02;10.63;;;;;;;12.60;100.00;102179.75;5053267;28;20044;-67
2023/06/01 06:36:21;;;;;;;24.55;11.00;;;;;;;12.37;100.00;102183.75;5053792;28;20476;-68
2023/06/01 06:38:47;;;;;;;24.35;11.10;;;;;;;12.30;100.00;102175.69;5053139;28;20021;-65
2023/06/01 06:41:12;;;;;;;22.70;11.15;;;;;;;12.24;100.00;102176.44;5053166;28;20037;-66
2023/06/01 06:43:38;;;;;;;23.63;11.07;;;;;;;12.28;100.00;102177.41;5053570;28;20055;-65
2023/06/01 06:46:03;;;;;;;24.17;11.18;;;;;;;12.31;100.00;102178.34;5053853;28;20116;-65
2023/06/01 06:48:28;;;;;;;23.85;11.40;;;;;;;12.37;100.00;102174.94;5052938;28;20578;-64
2023/06/01 06:50:55;;;;;;;24.65;11.32;;;;;;;12.38;100.00;102176.72;5053381;28;20037;-64
2023/06/01 06:53:20;;;;;;;23.27;11.02;;;;;;;12.25;100.00;102177.38;5053078;28;20025;-65
2023/06/01 06:55:46;;;;;;;23.70;11.13;;;;;;;12.32;100.00;102184.53;5053056;28;20029;-65
2023/06/01 06:58:12;;;;;;;25.90;12.23;;;;;;;12.43;100.00;102188.28;5052017;28;20469;-65
2023/06/01 07:00:37;;;;;;;24.45;11.50;;;;;;;12.62;100.00;102186.84;5051772;28;20033;-65
2023/06/01 07:03:03;;;;;;;27.15;12.50;;;;;;;12.85;100.00;102191.66;5053262;28;20471;-63
2023/06/01 07:05:29;;;;;;;25.15;11.40;;;;;;;13.21;100.00;102185.16;5052714;28;20167;-66
2023/06/01 07:07:55;;;;;;;22.77;10.85;;;;;;;13.75;100.00;102185.91;5052831;28;20028;-67
2023/06/01 07:10:20;;;;;;;23.95;11.00;;;;;;;14.03;100.00;102191.56;5052404;28;20143;-65
2023/06/01 07:12:45;;;;;;;22.67;10.35;;;;;;;14.23;100.00;102181.13;5053117;28;20506;-65
2023/06/01 07:15:11;;;;;;;22.55;10.57;;;;;;;14.44;100.00;102181.31;5052975;28;20147;-66
2023/06/01 07:17:37;;;;;;;23.52;10.63;;;;;;;14.54;100.00;102181.44;5052467;28;20062;-64
2023/06/01 07:20:06;;;;;;;26.40;11.32;;;;;;;14.45;100.00;102177.78;5052356;28;20044;-65
2023/06/01 07:22:32;;;;;;;25.77;10.68;;;;;;;14.31;100.00;102184.75;5052322;28;20032;-66
2023/06/01 07:24:58;;;;;;;23.67;10.30;;;;;;;14.04;100.00;102177.41;5052655;28;20025;-65
2023/06/01 07:27:24;;;;;;;26.10;12.25;;;;;;;13.97;100.00;102172.88;5052863;28;20120;-69
2023/06/01 07:29:54;;;;;;;23.42;11.20;;;;;;;13.90;100.00;102175.44;5051779;28;20411;-65
2023/06/01 07:32:21;;;;;;;24.65;11.30;;;;;;;13.92;100.00;102184.34;5052642;28;20037;-64
2023/06/01 07:34:46;;;;;;;22.80;10.50;;;;;;;14.00;100.00;102179.09;5052620;28;20033;-66
2023/06/01 07:37:12;;;;;;;23.55;10.52;;;;;;;13.92;100.00;102181.69;5052480;28;20033;-64
2023/06/01 07:39:37;;;;;;;23.58;10.93;;;;;;;13.89;100.00;102183.41;5050331;28;20087;-63
2023/06/01 07:42:02;;;;;;;23.08;11.30;;;;;;;13.68;100.00;102176.06;5052327;28;20037;-63
2023/06/01 07:44:28;;;;;;;23.98;11.13;;;;;;;13.68;100.00;102171.63;5052481;28;20025;-64
2023/06/01 07:46:53;;;;;;;25.27;11.32;;;;;;;13.62;100.00;102176.88;5052194;28;20433;-63
2023/06/01 07:49:18;;;;;;;24.65;11.07;;;;;;;13.63;100.00;102175.09;5051958;28;20029;-64
2023/06/01 07:51:44;;;;;;;23.65;11.15;;;;;;;13.66;100.00;102167.16;5051912;28;20029;-63
2023/06/01 07:54:10;;;;;;;23.48;11.27;;;;;;;13.65;100.00;102170.72;5052041;28;20029;-63
2023/06/01 07:56:35;;;;;;;25.05;11.25;;;;;;;13.86;100.00;102180.72;5052254;28;20029;-62
2023/06/01 07:59:01;;;;;;;23.00;11.30;;;;;;;13.93;100.00;102175.47;5051553;28;20037;-63
2023/06/01 08:01:27;;;;;;;23.58;11.13;;;;;;;14.08;100.00;102173.88;5051731;28;20033;-63
2023/06/01 08:03:52;;;;;;;23.90;11.02;;;;;;;14.22;100.00;102172.25;5052222;28;20086;-63
2023/06/01 08:06:22;;;;;;;24.08;11.50;;;;;;;14.47;100.00;102175.16;5051631;28;20399;-63
2023/06/01 08:08:49;;;;;;;23.52;10.88;;;;;;;14.55;100.00;102178.78;5051551;28;20464;-63
2023/06/01 08:11:15;;;;;;;24.55;10.98;;;;;;;14.48;100.00;102177.81;5052394;28;20061;-77
2023/06/01 08:13:41;;;;;;;23.35;11.15;;;;;;;14.64;100.00;102181.53;5051936;28;20032;-76
2023/06/01 08:16:06;;;;;;;22.58;10.50;;;;;;;14.73;100.00;102172.75;5051677;28;20029;-75
2023/06/01 08:18:32;;;;;;;23.88;10.88;;;;;;;14.94;100.00;102166.72;5050972;28;20036;-71
2023/06/01 08:21:00;;;;;;;23.55;10.65;;;;;;;15.17;100.00;102173.94;5051932;28;20060;-76
2023/06/01 08:23:25;;;;;;;23.15;10.68;;;;;;;15.23;100.00;102174.00;5051302;28;20076;-76
2023/06/01 08:25:51;;;;;;;22.77;10.68;;;;;;;15.37;100.00;102175.84;5052096;28;20029;-71
2023/06/01 08:28:16;;;;;;;23.48;11.02;;;;;;;15.49;100.00;102171.50;5051001;28;20108;-76
2023/06/01 08:30:41;;;;;;;23.95;11.43;;;;;;;15.50;100.00;102172.38;5051460;28;20477;-73
2023/06/01 08:33:07;;;;;;;22.88;10.60;;;;;;;15.56;100.00;102177.72;5051651;28;20064;-76
2023/06/01 08:35:33;;;;;;;23.40;11.15;;;;;;;15.63;100.00;102174.19;5053141;28;20044;-74
2023/06/01 08:38:02;;;;;;;23.00;10.98;;;;;;;15.76;100.00;102168.94;5050362;28;20082;-75
2023/06/01 08:40:28;;;;;;;22.77;10.52;;;;;;;15.94;97.11;102174.34;5051273;28;20033;-73
2023/06/01 08:43:09;;;;;;;24.15;11.20;;;;;;;16.08;99.07;102169.06;5051846;28;20017;-79
2023/06/01 08:45:36;;;;;;;24.50;11.32;;;;;;;15.98;97.29;102160.13;5048708;28;20435;-73
2023/06/01 08:48:02;;;;;;;25.02;11.98;;;;;;;16.10;97.62;102163.72;5051132;28;20483;-77
2023/06/01 08:50:28;;;;;;;23.85;11.15;;;;;;;16.16;93.61;102169.06;5051543;28;20025;-77
2023/06/01 08:52:56;;;;;;;24.60;10.88;;;;;;;16.43;92.90;102162.03;5051273;28;20090;-70
2023/06/01 08:55:22;;;;;;;24.40;11.23;;;;;;;16.60;88.20;102160.25;5051564;28;20029;-76
2023/06/01 08:57:47;;;;;;;23.92;11.60;;;;;;;16.67;83.83;102162.03;5052587;28;20036;-77
2023/06/01 09:00:13;;;;;;;23.55;10.95;;;;;;;16.80;84.89;102162.00;5050516;28;20387;-69
2023/06/01 09:02:40;;;;;;;22.23;10.77;;;;;;;16.93;81.55;102155.78;5049847;28;20029;-71
2023/06/01 09:05:05;;;;;;;25.08;11.30;;;;;;;17.05;81.46;102153.13;5051044;28;20036;-71
2023/06/01 09:07:31;;;;;;;24.92;11.27;;;;;;;17.25;80.47;102158.38;5050192;28;20029;-71
2023/06/01 09:09:57;;;;;;;26.13;11.38;;;;;;;17.25;76.63;102157.50;5050594;28;20112;-68
2023/06/01 09:12:25;;;;;;;23.70;11.25;;;;;;;17.40;78.34;102154.81;5051630;28;20104;-72
2023/06/01 09:15:09;;;;;;;24.45;11.25;;;;;;;17.56;78.85;102138.69;5053670;28;20120;-68
2023/06/01 09:17:35;;;;;;;24.15;10.77;;;;;;;17.61;79.62;102139.56;5053118;28;21137;-69
2023/06/01 09:20:00;;;;;;;23.67;11.43;;;;;;;17.67;75.77;102141.34;5053464;28;20021;-68
2023/06/01 09:22:41;;;;;;;22.60;10.43;;;;;;;17.93;75.52;102128.72;5054542;28;20029;-69
2023/06/01 09:25:07;;;;;;;23.75;11.27;;;;;;;17.96;76.35;102133.19;5053381;28;20029;-68
2023/06/01 09:27:50;;;;;;;22.33;10.85;;;;;;;18.27;77.77;102141.00;5053106;28;20465;-72
2023/06/01 09:30:18;;;;;;;23.40;11.27;;;;;;;18.15;72.92;102139.31;5052974;28;20048;-77
2023/06/01 09:32:47;;;;;;;24.48;11.52;;;;;;;18.21;73.30;102133.03;5054747;28;20585;-73
2023/06/01 09:35:13;;;;;;;23.95;11.50;;;;;;;18.37;72.36;102126.63;5054732;28;20116;-68
2023/06/01 09:37:52;;;;;;;26.25;11.48;;;;;;;18.67;71.80;102129.06;5054908;28;20017;-75
2023/06/01 09:40:19;;;;;;;23.83;11.18;;;;;;;18.62;66.89;102119.31;5054859;28;20041;-68
2023/06/01 09:42:44;;;;;;;23.92;11.18;;;;;;;18.72;70.29;102128.13;5054369;28;20032;-70
2023/06/01 09:45:21;;;;;;;23.95;11.50;;;;;;;18.73;67.30;102126.34;5054560;28;20029;-68
2023/06/01 09:47:48;;;;;;;24.42;11.48;;;;;;;18.80;66.54;102115.56;5054044;28;20061;-69
2023/06/01 09:50:43;;;;;;;23.85;10.85;;;;;;;19.24;65.63;102120.50;5053226;28;20036;-69
2023/06/01 09:53:09;;;;;;;23.42;10.48;;;;;;;19.41;66.13;102114.91;5049788;28;20052;-68
2023/06/01 09:55:34;;;;;;;23.02;10.45;;;;;;;19.79;63.16;102122.50;5050790;28;20372;-69
2023/06/01 09:58:22;;;;;;;24.45;10.73;;;;;;;20.17;62.82;102126.41;5052808;28;20582;-67
2023/06/01 10:00:51;;;;;;;23.73;10.75;;;;;;;20.81;58.59;102114.63;5053372;28;20021;-65
2023/06/01 10:03:18;;;;;;;23.95;11.23;;;;;;;21.50;53.79;102115.94;5054099;28;20442;-65
2023/06/01 10:05:45;;;;;;;22.67;10.65;;;;;;;22.91;51.48;102115.31;5053980;28;20021;-65
2023/06/01 10:08:12;;;;;;;22.73;10.25;;;;;;;24.51;45.92;102120.38;5053698;28;20025;-68
2023/06/01 10:10:39;;;;;;;23.20;10.23;;;;;;;25.47;43.08;102116.97;5055777;28;20033;-65
2023/06/01 10:13:06;;;;;;;22.98;10.25;;;;;;;26.20;40.04;102115.03;5054212;28;20029;-66
2023/06/01 10:15:32;;;;;;;22.67;9.77;;;;;;;26.90;38.83;102112.97;5053866;28;20032;-66
2023/06/01 10:17:58;;;;;;;22.42;10.20;;;;;;;27.33;37.07;102110.97;5053859;28;20029;-63
2023/06/01 10:20:24;;;;;;;21.92;9.80;;;;;;;28.38;36.19;102121.38;5054068;28;20032;-67
2023/06/01 10:22:49;;;;;;;22.75;10.20;;;;;;;28.29;35.43;102115.44;5053325;28;20021;-65
2023/06/01 10:25:20;;;;;;;22.08;9.98;;;;;;;28.56;35.17;102122.28;5054170;28;20033;-70
2023/06/01 10:27:55;;;;;;;21.75;10.20;;;;;;;28.52;35.16;102119.72;5052992;28;20025;-72
2023/06/01 10:30:21;;;;;;;22.23;9.95;;;;;;;28.52;34.11;102102.53;5052620;28;20041;-76
2023/06/01 10:32:48;;;;;;;21.92;9.98;;;;;;;28.91;33.98;102104.16;5053661;28;20048;-71
2023/06/01 10:35:25;;;;;;;22.67;10.70;;;;;;;29.25;33.99;102096.03;5053580;28;20078;-69
2023/06/01 10:38:06;;;;;;;22.50;10.60;;;;;;;29.38;33.50;102094.38;5053821;28;20031;-77
2023/06/01 10:40:34;;;;;;;22.85;10.15;;;;;;;29.06;32.51;102107.88;5053197;28;20073;-72
2023/06/01 10:42:59;;;;;;;22.60;10.73;;;;;;;29.50;32.09;102099.09;5053675;28;20095;-75
2023/06/01 10:45:33;;;;;;;22.38;10.65;;;;;;;29.64;32.77;102102.94;5053761;28;20060;-73
2023/06/01 10:48:00;;;;;;;22.15;10.18;;;;;;;30.08;31.32;102096.78;5055520;28;20025;-77
2023/06/01 10:50:25;;;;;;;21.83;10.25;;;;;;;30.19;30.33;102099.75;5053271;28;20059;-74
2023/06/01 10:52:53;;;;;;;23.92;10.63;;;;;;;30.48;30.71;102099.00;5052968;28;20025;-70
2023/06/01 10:55:20;;;;;;;22.17;10.18;;;;;;;30.84;30.25;102090.41;5053416;28;20029;-74
2023/06/01 10:57:46;;;;;;;21.73;10.10;;;;;;;31.35;29.34;102094.53;5049767;28;20107;-74
2023/06/01 11:00:28;;;;;;;22.38;10.15;;;;;;;31.66;29.33;102109.88;5052488;28;20068;-71
2023/06/01 11:03:01;;;;;;;22.48;10.32;;;;;;;32.08;29.11;102104.34;5050448;28;20491;-71
2023/06/01 11:05:50;;;;;;;21.75;9.93;;;;;;;32.42;28.31;102102.13;5050045;28;20036;-71